Time;durP1;ratioP1;P1;durP2;ratioP2;P2;SDS_P1;SDS_P2;PMS_P1;PMS_P2;Temp;Humidity;BMP_temperature;BMP_pressure;BME280_temperature;BME280_humidity;BME280_pressure;Samples;Min_cycle;Max_cycle;Signal;HPM_P1;HPM_P2
2022/12/22 03:27:42;;;;;;;119.88;31.95;;;8.00;99.90;;;;;;5011534;28;20049;-61
2022/12/22 03:30:08;;;;;;;90.60;29.20;;;8.00;99.90;;;;;;4992968;28;20127;-61
2022/12/22 03:32:34;;;;;;;85.43;31.83;;;8.00;99.90;;;;;;5025548;28;20061;-61
2022/12/22 03:35:00;;;;;;;92.57;29.92;;;8.00;99.90;;;;;;5011504;28;20488;-62
2022/12/22 03:37:26;;;;;;;73.38;28.85;;;8.00;99.90;;;;;;5018708;28;20384;-61
2022/12/22 03:39:52;;;;;;;81.32;30.58;;;8.00;99.90;;;;;;5007444;28;20116;-61
2022/12/22 03:47:47;;;;;;;95.72;31.75;;;8.00;99.90;;;;;;5018259;28;20124;-59
2022/12/22 03:50:13;;;;;;;112.93;34.08;;;8.00;99.90;;;;;;4992313;28;20128;-59
2022/12/22 03:52:38;;;;;;;104.30;34.20;;;8.00;99.90;;;;;;5007867;28;20238;-59
2022/12/22 03:55:05;;;;;;;111.28;32.33;;;8.00;99.90;;;;;;5026751;28;20049;-61
2022/12/22 03:57:30;;;;;;;116.22;35.05;;;8.00;99.90;;;;;;5025842;28;20041;-61
2022/12/22 03:59:56;;;;;;;134.75;35.03;;;8.00;99.90;;;;;;5026925;28;20171;-61
2022/12/22 04:02:22;;;;;;;126.78;35.42;;;8.10;99.90;;;;;;5025448;28;20498;-61
2022/12/22 04:04:48;;;;;;;125.15;35.42;;;8.10;99.90;;;;;;5026690;28;20048;-61
2022/12/22 04:07:14;;;;;;;116.85;33.80;;;8.10;99.90;;;;;;5026792;28;20045;-62
2022/12/22 04:12:53;;;;;;;125.63;35.55;;;8.10;99.90;;;;;;5001102;28;20263;-61
2022/12/22 04:15:10;;;;;;;96.03;30.02;;;8.10;99.90;;;;;;5026370;28;20107;-62
2022/12/22 04:17:35;;;;;;;106.10;32.05;;;8.20;99.90;;;;;;5026404;28;20045;-61
2022/12/22 04:20:01;;;;;;;151.50;35.90;;;8.10;99.90;;;;;;5029221;28;20529;-62
2022/12/22 04:22:27;;;;;;;111.47;31.50;;;8.20;99.90;;;;;;5011653;28;20419;-61
2022/12/22 04:24:53;;;;;;;104.38;32.38;;;8.10;99.90;;;;;;5030759;28;20484;-61
2022/12/22 04:27:19;;;;;;;111.32;34.92;;;8.10;99.90;;;;;;5009033;28;20062;-61
2022/12/22 04:29:45;;;;;;;104.15;33.47;;;8.10;99.90;;;;;;5011419;28;20049;-61
2022/12/22 04:32:11;;;;;;;118.25;34.95;;;8.10;99.90;;;;;;5029256;28;20041;-61
2022/12/22 04:34:37;;;;;;;152.73;36.42;;;8.10;99.90;;;;;;5029600;28;20427;-61
2022/12/22 04:37:03;;;;;;;140.98;34.53;;;8.10;99.90;;;;;;5030330;28;20041;-62
2022/12/22 04:39:29;;;;;;;112.47;33.30;;;8.10;99.90;;;;;;5011259;28;20517;-61
2022/12/22 04:41:55;;;;;;;128.68;35.25;;;8.20;99.90;;;;;;5030033;28;20041;-61
2022/12/22 04:44:21;;;;;;;118.57;34.50;;;8.10;99.90;;;;;;5029598;28;20179;-61
2022/12/22 04:46:46;;;;;;;122.72;34.55;;;8.10;99.90;;;;;;5030262;28;20064;-62
2022/12/22 04:49:12;;;;;;;126.65;34.33;;;8.10;99.90;;;;;;5029315;28;20496;-62
2022/12/22 04:51:39;;;;;;;109.00;32.78;;;8.10;99.90;;;;;;5029621;28;20049;-62
2022/12/22 04:54:05;;;;;;;125.85;33.88;;;8.10;99.90;;;;;;5029424;28;20056;-62
2022/12/22 04:56:30;;;;;;;131.50;35.53;;;8.10;99.90;;;;;;5029727;28;20041;-61
2022/12/22 04:58:56;;;;;;;142.77;35.90;;;8.10;99.90;;;;;;5030191;28;20111;-62
2022/12/22 05:01:22;;;;;;;121.30;33.75;;;8.10;99.90;;;;;;5028962;28;20470;-61
2022/12/22 05:03:48;;;;;;;129.65;38.13;;;8.10;99.90;;;;;;5029077;28;20048;-61
2022/12/22 05:06:14;;;;;;;134.18;35.88;;;8.10;99.90;;;;;;5029005;28;20136;-62
2022/12/22 05:08:40;;;;;;;144.55;38.80;;;8.10;99.90;;;;;;4995000;28;20048;-61
2022/12/22 05:11:07;;;;;;;127.65;36.42;;;8.10;99.90;;;;;;5015151;28;20037;-62
2022/12/22 05:13:33;;;;;;;141.02;36.55;;;8.10;99.90;;;;;;5028766;28;20666;-62
2022/12/22 05:16:08;;;;;;;137.57;38.70;;;8.10;99.90;;;;;;5029605;28;20085;-62
2022/12/22 05:18:36;;;;;;;137.18;37.17;;;8.10;99.90;;;;;;5007587;28;20492;-62
2022/12/22 05:21:06;;;;;;;162.95;37.85;;;8.10;99.90;;;;;;5026512;28;20411;-61
2022/12/22 05:23:32;;;;;;;139.95;38.60;;;8.10;99.90;;;;;;5028603;28;20117;-61
2022/12/22 05:25:58;;;;;;;144.77;40.75;;;8.10;99.90;;;;;;5012010;28;20132;-62
2022/12/22 05:28:23;;;;;;;172.93;44.75;;;8.10;99.90;;;;;;5028769;28;20503;-62
2022/12/22 05:30:50;;;;;;;160.98;43.28;;;8.10;99.90;;;;;;5027950;28;20573;-62
2022/12/22 05:33:15;;;;;;;178.45;47.47;;;8.10;99.90;;;;;;5028375;28;20046;-61
2022/12/22 05:35:41;;;;;;;187.93;50.47;;;8.10;99.90;;;;;;5028374;28;20155;-61
2022/12/22 05:38:07;;;;;;;174.73;47.35;;;8.00;99.90;;;;;;5029503;28;20038;-62
2022/12/22 05:40:32;;;;;;;166.30;45.17;;;8.00;99.90;;;;;;5028169;28;20460;-62
2022/12/22 05:42:58;;;;;;;133.02;38.17;;;8.00;99.90;;;;;;5010863;28;20143;-61
2022/12/22 05:45:24;;;;;;;157.95;44.95;;;8.00;99.90;;;;;;5027903;28;20048;-61
2022/12/22 05:47:51;;;;;;;112.43;36.45;;;8.00;99.90;;;;;;5028722;28;20056;-62
2022/12/22 05:50:23;;;;;;;88.20;29.75;;;8.00;99.90;;;;;;5028274;28;20483;-61
2022/12/22 05:52:49;;;;;;;90.18;32.17;;;8.00;99.90;;;;;;5028137;28;20037;-62
2022/12/22 05:55:15;;;;;;;98.25;31.85;;;8.00;99.90;;;;;;5026848;28;20434;-61
2022/12/22 05:57:42;;;;;;;88.45;30.27;;;7.90;99.90;;;;;;5018661;28;20065;-61
2022/12/22 06:00:13;;;;;;;77.40;26.52;;;7.90;99.90;;;;;;5028618;28;20128;-62
2022/12/22 06:02:40;;;;;;;61.50;22.92;;;7.80;99.90;;;;;;5027548;28;20526;-61
2022/12/22 06:05:07;;;;;;;67.65;23.27;;;7.80;99.90;;;;;;5010524;28;20088;-61
2022/12/22 06:07:33;;;;;;;60.72;22.67;;;7.70;99.90;;;;;;5010556;28;20056;-62
2022/12/22 06:09:59;;;;;;;63.35;24.05;;;7.60;99.90;;;;;;5000349;28;20053;-61
2022/12/22 06:12:24;;;;;;;70.78;24.33;;;7.60;99.90;;;;;;5028103;28;20038;-62
2022/12/22 06:14:50;;;;;;;58.88;23.95;;;7.60;99.90;;;;;;5027030;28;20069;-62
2022/12/22 06:17:16;;;;;;;68.50;24.75;;;7.50;99.90;;;;;;5026251;28;20123;-62
2022/12/22 06:19:42;;;;;;;53.35;22.98;;;7.50;99.90;;;;;;5008179;28;20057;-61
2022/12/22 06:22:08;;;;;;;56.90;22.65;;;7.50;99.90;;;;;;5028936;28;20480;-62
2022/12/22 06:24:34;;;;;;;52.85;22.17;;;7.40;99.90;;;;;;5027029;28;20049;-62
2022/12/22 06:27:00;;;;;;;60.70;25.92;;;7.30;99.90;;;;;;5027945;28;20110;-62
2022/12/22 06:29:25;;;;;;;51.80;24.38;;;7.20;99.90;;;;;;5027967;28;20041;-61
2022/12/22 06:31:51;;;;;;;49.75;22.80;;;7.10;99.90;;;;;;5026857;28;20060;-62
2022/12/22 06:34:18;;;;;;;49.97;22.15;;;7.10;99.90;;;;;;5010522;28;20087;-61
2022/12/22 06:36:47;;;;;;;54.85;21.70;;;7.00;99.90;;;;;;5022559;28;20508;-62
2022/12/22 06:39:15;;;;;;;53.42;22.92;;;6.90;99.90;;;;;;5007958;28;20484;-62
2022/12/22 06:44:25;;;;;;;48.72;21.58;;;6.80;99.90;;;;;;5026886;28;20128;-62
2022/12/22 06:46:52;;;;;;;52.97;21.33;;;6.80;99.90;;;;;;5026778;28;20411;-62
2022/12/22 06:49:19;;;;;;;46.33;19.35;;;6.70;99.90;;;;;;5009751;28;20507;-62
2022/12/22 06:51:45;;;;;;;46.22;21.00;;;6.70;99.90;;;;;;5023021;28;20042;-62
2022/12/22 06:54:11;;;;;;;46.13;20.50;;;6.70;99.90;;;;;;5016441;28;20046;-62
2022/12/22 06:56:37;;;;;;;54.38;21.48;;;6.70;99.90;;;;;;5027611;28;20659;-62
2022/12/22 06:59:03;;;;;;;51.33;20.98;;;6.60;99.90;;;;;;5026013;28;20116;-61
2022/12/22 07:01:29;;;;;;;58.42;22.50;;;6.50;99.90;;;;;;5027580;28;20055;-62
2022/12/22 07:03:54;;;;;;;53.97;20.50;;;6.50;99.90;;;;;;5026847;28;20124;-62
2022/12/22 07:06:20;;;;;;;47.42;20.15;;;6.40;99.90;;;;;;5026768;28;20510;-62
2022/12/22 07:08:47;;;;;;;54.13;21.92;;;6.40;99.90;;;;;;4990119;28;20096;-62
2022/12/22 07:11:14;;;;;;;53.97;21.40;;;6.30;99.90;;;;;;5012759;28;20049;-62
2022/12/22 07:13:40;;;;;;;51.38;21.67;;;6.30;99.90;;;;;;5006719;28;20050;-62
2022/12/22 07:16:10;;;;;;;56.95;21.38;;;6.20;99.90;;;;;;5015687;28;20046;-62
2022/12/22 07:18:40;;;;;;;45.70;20.80;;;6.20;99.90;;;;;;5025530;28;20462;-61
2022/12/22 07:21:09;;;;;;;47.72;17.80;;;6.00;99.90;;;;;;4983635;28;20528;-61
2022/12/22 07:23:36;;;;;;;48.92;19.38;;;6.00;99.90;;;;;;5017717;28;20140;-61
2022/12/22 07:26:03;;;;;;;49.55;18.85;;;5.90;99.90;;;;;;5009417;28;20044;-61
2022/12/22 07:28:31;;;;;;;44.83;19.73;;;5.90;99.90;;;;;;5021997;28;20045;-61
2022/12/22 07:30:57;;;;;;;52.63;17.92;;;5.90;99.90;;;;;;5021662;28;20030;-61
2022/12/22 07:33:23;;;;;;;39.92;17.52;;;5.90;99.90;;;;;;5010483;28;20076;-61
2022/12/22 07:36:00;;;;;;;47.28;18.20;;;5.80;99.90;;;;;;5012745;28;20046;-61
2022/12/22 07:38:26;;;;;;;50.72;18.65;;;5.80;99.90;;;;;;5002784;28;20362;-62
2022/12/22 07:40:57;;;;;;;51.17;19.05;;;5.70;99.90;;;;;;5012222;28;20619;-62
2022/12/22 07:43:23;;;;;;;51.72;18.98;;;5.60;99.90;;;;;;5026508;28;20208;-62
2022/12/22 07:45:50;;;;;;;59.35;19.85;;;5.60;99.90;;;;;;5002547;28;20578;-61
2022/12/22 07:51:04;;;;;;;46.90;16.80;;;6.00;99.90;;;;;;5010938;28;20041;-62
2022/12/22 07:53:31;;;;;;;41.13;15.90;;;6.10;99.90;;;;;;5011017;28;20045;-62
2022/12/22 07:56:01;;;;;;;40.72;15.20;;;6.20;99.90;;;;;;5012791;28;20456;-62
2022/12/22 07:58:27;;;;;;;;;;;6.30;99.90;;;;;;5015197;28;20041;-62
2022/12/22 08:00:59;;;;;;;30.42;12.88;;;6.40;99.90;;;;;;5013410;28;19976;-62
2022/12/22 08:03:25;;;;;;;56.85;19.05;;;6.50;99.90;;;;;;5029839;28;20045;-62
2022/12/22 08:05:51;;;;;;;51.17;15.73;;;6.40;99.90;;;;;;5012685;28;20107;-62
2022/12/22 08:08:16;;;;;;;61.80;18.33;;;6.40;99.90;;;;;;5030028;28;20369;-62
2022/12/22 08:10:42;;;;;;;64.55;19.02;;;6.40;99.90;;;;;;4998643;28;20052;-61
2022/12/22 08:13:08;;;;;;;68.03;19.35;;;6.30;99.90;;;;;;5029952;28;20049;-61
2022/12/22 08:15:33;;;;;;;57.33;18.42;;;6.20;99.90;;;;;;5030364;28;20115;-62
2022/12/22 08:18:00;;;;;;;62.08;18.60;;;6.20;99.90;;;;;;5012906;28;20047;-61
2022/12/22 08:20:26;;;;;;;68.30;18.08;;;6.10;99.90;;;;;;5029497;28;20049;-62
2022/12/22 08:22:52;;;;;;;86.63;18.38;;;6.10;99.90;;;;;;5030339;28;20050;-62
2022/12/22 08:25:17;;;;;;;92.07;20.02;;;6.00;99.90;;;;;;5028865;28;20048;-62
2022/12/22 08:27:49;;;;;;;93.32;19.42;;;5.90;99.90;;;;;;5029504;28;20042;-62
2022/12/22 08:30:15;;;;;;;77.03;18.48;;;5.90;99.90;;;;;;5011261;28;20046;-62
2022/12/22 08:32:42;;;;;;;102.88;18.33;;;5.80;99.90;;;;;;5014556;28;20557;-62
2022/12/22 08:35:09;;;;;;;116.05;20.05;;;5.80;99.90;;;;;;4976631;28;20120;-62
2022/12/22 08:37:40;;;;;;;172.93;23.23;;;5.90;99.90;;;;;;4992072;28;20121;-61
2022/12/22 08:40:09;;;;;;;118.53;21.42;;;5.90;99.90;;;;;;5027141;28;20041;-62
2022/12/22 08:42:35;;;;;;;129.25;20.92;;;5.90;99.90;;;;;;5029418;28;20123;-62
2022/12/22 08:45:01;;;;;;;375.55;25.70;;;5.90;99.90;;;;;;5028975;28;20080;-62
2022/12/22 08:47:27;;;;;;;433.42;24.23;;;6.00;99.90;;;;;;5010192;28;20045;-62
2022/12/22 08:49:53;;;;;;;347.25;23.35;;;6.10;99.90;;;;;;5029038;28;20519;-62
2022/12/22 08:52:18;;;;;;;445.98;24.83;;;6.10;99.90;;;;;;5029331;28;20455;-62
2022/12/22 08:54:44;;;;;;;446.75;26.15;;;6.10;99.90;;;;;;5028680;28;20049;-62
2022/12/22 08:57:10;;;;;;;358.33;23.45;;;6.10;99.90;;;;;;5011559;28;20041;-62
2022/12/22 08:59:36;;;;;;;553.78;26.58;;;6.10;99.90;;;;;;5011079;28;20107;-62
2022/12/22 09:02:05;;;;;;;442.85;25.15;;;6.10;99.90;;;;;;5029296;28;20491;-61
2022/12/22 09:04:32;;;;;;;497.40;25.67;;;6.10;99.90;;;;;;5028236;28;20491;-61
2022/12/22 09:07:01;;;;;;;505.20;24.13;;;6.10;99.90;;;;;;5028068;28;20601;-62
2022/12/22 09:09:31;;;;;;;590.70;28.15;;;6.10;99.90;;;;;;5023546;28;20041;-62
2022/12/22 09:11:57;;;;;;;494.08;25.27;;;6.10;99.90;;;;;;5021088;28;20475;-62
2022/12/22 09:14:23;;;;;;;95.43;19.75;;;6.10;99.90;;;;;;4995144;28;20040;-62
2022/12/22 09:16:49;;;;;;;87.35;19.77;;;6.00;99.90;;;;;;5028446;28;20050;-62
2022/12/22 09:19:15;;;;;;;70.57;19.60;;;6.00;99.90;;;;;;5029383;28;20040;-62
2022/12/22 09:21:43;;;;;;;93.97;20.30;;;6.00;99.90;;;;;;5028734;28;20407;-62
2022/12/22 09:24:09;;;;;;;146.98;22.75;;;6.00;99.90;;;;;;5029402;28;20053;-62
2022/12/22 09:26:35;;;;;;;173.07;23.38;;;6.00;99.90;;;;;;5011542;28;20131;-62
2022/12/22 09:29:01;;;;;;;81.90;18.10;;;6.00;99.90;;;;;;4991472;28;20125;-62
2022/12/22 09:31:28;;;;;;;71.00;15.70;;;6.10;99.90;;;;;;5027462;28;20455;-62
2022/12/22 09:33:54;;;;;;;99.47;18.30;;;6.10;99.90;;;;;;5010073;28;20507;-62
2022/12/22 09:36:23;;;;;;;71.80;15.60;;;6.20;99.90;;;;;;5009385;28;20496;-62
2022/12/22 09:38:49;;;;;;;99.95;17.98;;;6.20;99.90;;;;;;5010677;28;20077;-62
2022/12/22 09:41:16;;;;;;;100.53;17.25;;;6.20;99.90;;;;;;5028335;28;20088;-62
2022/12/22 09:43:42;;;;;;;48.35;13.90;;;6.30;99.90;;;;;;5010694;28;20049;-62
2022/12/22 09:46:22;;;;;;;65.70;15.05;;;6.30;99.90;;;;;;5028634;28;20530;-62
2022/12/22 09:48:48;;;;;;;39.30;13.35;;;6.40;99.90;;;;;;5004639;28;20037;-62
2022/12/22 09:51:16;;;;;;;53.20;14.00;;;6.30;99.90;;;;;;5020797;28;20095;-62
2022/12/22 09:53:44;;;;;;;45.00;12.80;;;6.30;99.90;;;;;;5028530;28;20045;-62
2022/12/22 09:56:15;;;;;;;59.22;14.85;;;6.40;99.90;;;;;;5017277;28;20050;-62
2022/12/22 09:58:41;;;;;;;42.50;11.90;;;6.40;99.90;;;;;;4993194;28;20487;-62
2022/12/22 10:01:24;;;;;;;51.50;12.73;;;6.30;99.90;;;;;;5027990;28;20045;-61
2022/12/22 10:04:03;;;;;;;33.63;10.95;;;6.40;99.90;;;;;;5027732;28;20590;-62
2022/12/22 10:06:47;;;;;;;47.35;13.88;;;6.50;99.90;;;;;;5027982;28;20125;-62
2022/12/22 10:09:28;;;;;;;53.13;13.18;;;6.50;99.90;;;;;;5018853;28;20052;-62
2022/12/22 10:12:01;;;;;;;47.20;12.48;;;6.60;99.90;;;;;;5019669;28;20076;-61
2022/12/22 10:14:42;;;;;;;35.00;9.52;;;6.70;99.90;;;;;;5011201;28;20039;-62
2022/12/22 10:17:37;;;;;;;31.70;10.13;;;6.80;99.90;;;;;;5027172;28;20531;-62
2022/12/22 10:20:24;;;;;;;38.03;10.50;;;6.80;99.90;;;;;;5016908;28;20408;-62
2022/12/22 10:23:03;;;;;;;31.95;9.10;;;6.90;99.90;;;;;;5005970;28;20653;-62
2022/12/22 10:25:37;;;;;;;26.08;8.50;;;6.90;99.90;;;;;;5006492;28;20079;-62
2022/12/22 10:28:20;;;;;;;36.92;11.05;;;7.10;99.90;;;;;;5026946;28;20041;-62
2022/12/22 10:30:46;;;;;;;21.35;7.60;;;7.20;99.90;;;;;;5027431;28;20053;-62
2022/12/22 10:33:14;;;;;;;21.70;7.18;;;7.20;99.90;;;;;;5027816;28;20071;-62
2022/12/22 10:35:49;;;;;;;35.83;10.27;;;7.30;99.90;;;;;;5027231;28;20109;-62
2022/12/22 10:38:28;;;;;;;20.60;8.18;;;7.30;99.90;;;;;;5024793;28;20045;-62
2022/12/22 10:41:12;;;;;;;32.92;9.95;;;7.40;99.90;;;;;;5025431;28;20128;-62
2022/12/22 10:43:50;;;;;;;33.70;9.85;;;7.50;99.90;;;;;;5006952;28;20132;-62
2022/12/22 10:46:35;;;;;;;27.30;9.15;;;7.60;99.90;;;;;;5020100;28;20041;-62
2022/12/22 10:49:19;;;;;;;24.83;8.63;;;7.70;99.90;;;;;;4984082;28;20049;-62
2022/12/22 10:51:48;;;;;;;32.00;9.25;;;7.80;99.90;;;;;;5002589;28;20124;-62
2022/12/22 10:54:34;;;;;;;18.60;6.88;;;7.90;99.90;;;;;;5017837;28;20045;-62
2022/12/22 10:57:12;;;;;;;15.93;7.68;;;7.90;99.90;;;;;;5009513;28;20053;-62
2022/12/22 10:59:49;;;;;;;19.67;6.32;;;7.90;99.90;;;;;;5004875;28;20056;-62
2022/12/22 11:02:23;;;;;;;16.70;6.07;;;7.90;99.90;;;;;;5002566;28;20060;-62
2022/12/22 11:04:50;;;;;;;21.65;8.35;;;8.00;99.90;;;;;;5026428;28;20049;-62
2022/12/22 11:07:16;;;;;;;24.33;8.20;;;8.00;99.90;;;;;;5027569;28;20052;-62
2022/12/22 11:09:42;;;;;;;16.10;5.75;;;8.00;99.90;;;;;;5001193;28;20057;-61
2022/12/22 11:12:43;;;;;;;24.42;7.82;;;7.90;99.90;;;;;;5019712;28;20084;-62
2022/12/22 11:15:18;;;;;;;16.58;5.45;;;7.80;99.90;;;;;;4982386;28;20050;-62
2022/12/22 11:17:55;;;;;;;15.82;6.40;;;7.80;99.90;;;;;;5010427;28;20060;-62
2022/12/22 11:20:37;;;;;;;10.25;3.80;;;7.80;99.90;;;;;;4990297;28;20050;-62
2022/12/22 11:23:24;;;;;;;17.33;5.45;;;7.90;99.90;;;;;;5012428;28;20100;-62
2022/12/22 11:26:11;;;;;;;16.05;6.25;;;7.90;99.90;;;;;;4996642;28;20041;-62
2022/12/22 11:28:59;;;;;;;24.65;6.80;;;7.90;99.90;;;;;;5002740;28;20054;-62
2022/12/22 11:31:27;;;;;;;21.48;7.35;;;7.80;99.90;;;;;;5022145;28;20179;-62
2022/12/22 11:34:05;;;;;;;14.13;6.47;;;7.80;99.90;;;;;;5014679;28;20132;-62
2022/12/22 11:36:52;;;;;;;7.85;3.83;;;7.80;99.90;;;;;;5013832;28;20055;-62
2022/12/22 11:39:36;;;;;;;12.55;5.75;;;7.80;99.90;;;;;;5011105;28;20158;-62
2022/12/22 11:42:39;;;;;;;20.35;6.82;;;7.70;99.90;;;;;;5024678;28;20211;-62
2022/12/22 11:45:20;;;;;;;16.33;6.53;;;7.70;99.90;;;;;;5004079;28;20049;-62
2022/12/22 11:47:56;;;;;;;18.98;7.40;;;7.80;99.90;;;;;;5010609;28;20543;-62
2022/12/22 11:50:41;;;;;;;20.40;6.55;;;7.70;99.90;;;;;;5010913;28;20084;-62
2022/12/22 11:53:59;;;;;;;24.15;5.65;;;7.80;99.90;;;;;;4975427;28;20069;-62
2022/12/22 11:56:39;;;;;;;15.85;5.43;;;7.90;99.90;;;;;;5017577;28;20462;-62
2022/12/22 11:59:20;;;;;;;21.65;5.55;;;7.90;99.90;;;;;;4999566;28;20065;-62
2022/12/22 12:02:24;;;;;;;17.20;6.63;;;7.90;99.90;;;;;;5008948;28;20046;-62
2022/12/22 12:04:58;;;;;;;20.90;6.22;;;7.80;99.90;;;;;;5009443;28;20045;-62
2022/12/22 12:07:45;;;;;;;18.33;5.65;;;7.80;99.90;;;;;;5000319;28;20050;-62
2022/12/22 12:10:23;;;;;;;12.68;4.80;;;7.80;99.90;;;;;;4984056;28;20388;-62
2022/12/22 12:13:21;;;;;;;20.88;5.75;;;7.80;99.90;;;;;;5000927;28;20396;-62
2022/12/22 12:16:16;;;;;;;13.52;4.95;;;7.90;99.90;;;;;;4970702;28;20045;-62
2022/12/22 12:19:01;;;;;;;16.60;6.30;;;7.90;99.90;;;;;;5003984;28;20045;-62
2022/12/22 12:21:41;;;;;;;19.75;5.90;;;7.90;99.90;;;;;;5002341;28;20141;-62
2022/12/22 12:24:50;;;;;;;14.00;3.03;;;8.00;99.90;;;;;;5008909;28;20403;-62
2022/12/22 12:27:38;;;;;;;15.60;5.38;;;8.00;99.90;;;;;;5014472;28;20126;-62
2022/12/22 12:30:19;;;;;;;12.50;3.70;;;8.10;99.90;;;;;;5007316;28;20046;-62
2022/12/22 12:32:47;;;;;;;25.92;5.00;;;8.10;99.90;;;;;;5021912;28;20550;-61
2022/12/22 12:35:48;;;;;;;19.20;5.25;;;8.10;99.90;;;;;;5007302;28;20055;-60
2022/12/22 12:38:22;;;;;;;15.43;4.22;;;8.20;99.90;;;;;;5025533;28;20045;-60
2022/12/22 12:41:09;;;;;;;17.83;4.38;;;8.30;99.90;;;;;;5027696;28;20353;-60
2022/12/22 12:43:36;;;;;;;14.38;4.20;;;8.30;99.90;;;;;;5023619;28;20057;-60
2022/12/22 12:46:41;;;;;;;22.67;4.38;;;8.40;99.90;;;;;;5022570;28;20041;-60
2022/12/22 12:49:34;;;;;;;18.80;4.93;;;8.40;99.90;;;;;;5021191;28;20056;-61
2022/12/22 12:52:12;;;;;;;15.27;4.43;;;8.40;99.90;;;;;;5025040;28;20045;-61
2022/12/22 12:54:46;;;;;;;29.77;5.55;;;8.40;99.90;;;;;;5017517;28;20050;-61
2022/12/22 12:57:45;;;;;;;29.38;4.53;;;8.40;99.90;;;;;;5014202;28;20077;-62
2022/12/22 13:00:32;;;;;;;19.33;4.65;;;8.40;99.90;;;;;;5026699;28;20457;-62
2022/12/22 13:03:33;;;;;;;13.23;4.25;;;8.50;99.90;;;;;;5025893;28;20049;-62
2022/12/22 13:06:01;;;;;;;17.58;4.95;;;8.40;99.90;;;;;;5025158;28;20127;-62
2022/12/22 13:08:31;;;;;;;17.08;4.85;;;8.30;99.90;;;;;;5027559;28;20562;-62
2022/12/22 13:10:57;;;;;;;;;;;8.20;99.90;;;;;;5026843;28;20399;-62
2022/12/22 13:13:25;;;;;;;12.57;3.80;;;8.20;99.90;;;;;;5028428;28;19925;-62
2022/12/22 13:16:00;;;;;;;15.07;4.10;;;8.20;99.90;;;;;;5028992;28;20404;-62
2022/12/22 13:18:29;;;;;;;25.20;4.40;;;8.10;99.90;;;;;;5011028;28;20053;-62
2022/12/22 13:21:02;;;;;;;15.60;4.57;;;8.10;99.90;;;;;;5029059;28;20048;-62
2022/12/22 13:23:34;;;;;;;18.70;4.95;;;8.10;99.90;;;;;;5028935;28;20559;-62
2022/12/22 13:26:22;;;;;;;10.23;2.70;;;8.10;99.90;;;;;;5028922;28;20418;-62
2022/12/22 13:29:06;;;;;;;10.85;3.92;;;8.20;99.90;;;;;;5013127;28;20134;-62
2022/12/22 13:31:47;;;;;;;22.88;4.72;;;8.20;99.90;;;;;;5028017;28;20412;-62
2022/12/22 13:34:29;;;;;;;16.38;3.95;;;8.20;99.90;;;;;;5029425;28;20057;-62
2022/12/22 13:36:59;;;;;;;16.45;3.72;;;8.20;99.90;;;;;;5016166;28;20132;-62
2022/12/22 13:39:24;;;;;;;15.37;3.70;;;8.20;99.90;;;;;;5028630;28;20056;-62
2022/12/22 13:41:51;;;;;;;16.42;3.47;;;8.20;99.90;;;;;;5007362;28;20053;-62
2022/12/22 13:44:28;;;;;;;16.48;3.22;;;8.30;99.90;;;;;;4999821;28;20088;-62
2022/12/22 13:46:54;;;;;;;15.23;2.58;;;8.20;99.90;;;;;;5007174;28;20431;-62
2022/12/22 13:49:23;;;;;;;21.38;4.30;;;8.20;99.90;;;;;;4991470;28;20480;-62
2022/12/22 13:51:50;;;;;;;15.38;3.45;;;8.20;99.90;;;;;;5025265;28;20048;-61
2022/12/22 13:54:44;;;;;;;12.57;2.75;;;8.20;99.90;;;;;;5011353;28;20041;-62
2022/12/22 13:57:20;;;;;;;8.60;2.30;;;8.20;99.90;;;;;;5024639;28;20057;-61
2022/12/22 13:59:49;;;;;;;15.80;2.80;;;8.20;99.90;;;;;;5028557;28;20514;-62
2022/12/22 14:02:19;;;;;;;10.98;1.65;;;8.20;99.90;;;;;;4999352;28;20038;-62
2022/12/22 14:05:11;;;;;;;19.70;3.77;;;8.20;99.90;;;;;;5021007;28;20085;-62
2022/12/22 14:07:37;;;;;;;25.30;5.15;;;8.20;99.90;;;;;;5017201;28;20557;-62
2022/12/22 14:10:04;;;;;;;21.10;3.22;;;8.20;99.90;;;;;;5017399;28;20042;-62
2022/12/22 14:12:40;;;;;;;15.88;3.35;;;8.20;99.90;;;;;;5006384;28;20060;-62
2022/12/22 14:15:14;;;;;;;16.85;3.03;;;8.20;99.90;;;;;;5027629;28;20879;-62
2022/12/22 14:17:40;;;;;;;13.93;2.70;;;8.20;99.90;;;;;;5026183;28;20037;-62
2022/12/22 14:20:36;;;;;;;15.90;3.63;;;8.30;99.90;;;;;;5016190;28;20048;-62
2022/12/22 14:23:15;;;;;;;7.75;2.58;;;8.20;99.90;;;;;;5023121;28;20100;-62
2022/12/22 14:25:43;;;;;;;18.27;2.50;;;8.20;99.90;;;;;;5010641;28;20113;-61
2022/12/22 14:28:36;;;;;;;17.20;3.20;;;8.20;99.90;;;;;;5007723;28;20080;-62
2022/12/22 14:31:06;;;;;;;17.35;3.47;;;8.30;99.90;;;;;;5015560;28;20129;-62
2022/12/22 14:33:33;;;;;;;16.08;3.05;;;8.30;99.90;;;;;;5017051;28;20447;-61
2022/12/22 14:36:18;;;;;;;18.30;3.28;;;8.30;99.90;;;;;;5007287;28;20060;-62
2022/12/22 14:38:50;;;;;;;11.95;2.20;;;8.30;99.90;;;;;;5026716;28;20052;-62
2022/12/22 14:41:41;;;;;;;14.18;2.65;;;8.30;99.90;;;;;;5012842;28;20117;-62
2022/12/22 14:44:18;;;;;;;13.88;3.20;;;8.30;99.90;;;;;;5019574;28;20139;-62
2022/12/22 14:47:19;;;;;;;13.00;2.55;;;8.30;99.90;;;;;;5009854;28;20038;-62
2022/12/22 14:50:01;;;;;;;7.72;1.70;;;8.30;99.90;;;;;;5016280;28;20783;-62
2022/12/22 14:52:52;;;;;;;21.40;3.35;;;8.30;99.90;;;;;;5017088;28;20042;-62
2022/12/22 14:55:20;;;;;;;12.98;2.75;;;8.30;99.90;;;;;;5016900;28;20041;-62
2022/12/22 14:57:53;;;;;;;15.25;2.97;;;8.30;99.90;;;;;;5013001;28;20041;-62
2022/12/22 15:00:21;;;;;;;21.92;3.20;;;8.40;99.90;;;;;;5027630;28;20045;-62
2022/12/22 15:02:55;;;;;;;11.50;2.58;;;8.30;99.90;;;;;;5012489;28;20053;-62
2022/12/22 15:05:37;;;;;;;15.45;3.70;;;8.30;99.90;;;;;;5015436;28;20510;-62
2022/12/22 15:08:25;;;;;;;17.35;3.10;;;8.30;99.90;;;;;;5001850;28;20049;-62
2022/12/22 15:10:51;;;;;;;16.60;2.65;;;8.30;99.90;;;;;;5021775;28;20132;-62
2022/12/22 15:13:22;;;;;;;16.40;2.92;;;8.30;99.90;;;;;;5020830;28;20468;-62
2022/12/22 15:15:52;;;;;;;14.07;2.67;;;8.20;99.90;;;;;;5022039;28;20049;-62
2022/12/22 15:18:23;;;;;;;14.25;3.15;;;8.20;99.90;;;;;;5011667;28;20077;-62
2022/12/22 15:20:49;;;;;;;20.00;3.08;;;8.10;99.90;;;;;;5022602;28;20504;-62
2022/12/22 15:23:15;;;;;;;14.30;2.47;;;8.10;99.90;;;;;;5010464;28;20176;-62
2022/12/22 15:25:41;;;;;;;16.73;2.90;;;8.10;99.90;;;;;;5016312;28;20042;-62
2022/12/22 15:28:07;;;;;;;12.38;2.45;;;8.10;99.90;;;;;;4999600;28;20037;-62
2022/12/22 15:30:34;;;;;;;14.07;2.25;;;8.10;99.90;;;;;;5000654;28;20042;-62
2022/12/22 15:33:01;;;;;;;14.80;2.58;;;8.00;99.90;;;;;;5015822;28;20041;-62
2022/12/22 15:35:33;;;;;;;16.25;2.70;;;8.00;99.90;;;;;;5012603;28;20060;-62
2022/12/22 15:38:00;;;;;;;9.30;2.42;;;8.00;99.90;;;;;;5009340;28;20148;-62
2022/12/22 15:40:26;;;;;;;15.80;2.35;;;8.00;99.90;;;;;;5018745;28;20434;-62
2022/12/22 15:42:52;;;;;;;8.55;1.90;;;8.00;99.90;;;;;;4997905;28;20107;-62
2022/12/22 15:45:20;;;;;;;12.15;2.97;;;8.00;99.90;;;;;;4996371;28;20054;-62
2022/12/22 15:47:50;;;;;;;18.20;2.40;;;8.00;99.90;;;;;;5023220;28;20045;-62
2022/12/22 15:50:38;;;;;;;17.80;2.58;;;8.00;99.90;;;;;;5011068;28;20034;-62
2022/12/22 15:53:05;;;;;;;15.77;2.80;;;7.90;99.90;;;;;;5022507;28;20446;-62
2022/12/22 15:55:33;;;;;;;19.95;2.63;;;7.90;99.90;;;;;;5012200;28;20149;-62
2022/12/22 15:57:59;;;;;;;9.93;2.42;;;7.90;99.90;;;;;;4993364;28;20088;-62
2022/12/22 16:00:24;;;;;;;9.27;2.33;;;7.90;99.90;;;;;;5011305;28;20042;-62
2022/12/22 16:02:51;;;;;;;10.85;1.67;;;7.90;99.90;;;;;;4995650;28;20060;-62
2022/12/22 16:05:17;;;;;;;9.50;1.85;;;8.00;99.90;;;;;;5020400;28;20067;-62
2022/12/22 16:07:43;;;;;;;11.93;2.17;;;7.90;99.90;;;;;;4980151;28;20041;-62
2022/12/22 16:10:30;;;;;;;9.38;2.20;;;8.00;99.90;;;;;;5014730;28;20088;-62
2022/12/22 16:13:01;;;;;;;10.95;2.30;;;8.00;99.90;;;;;;5019664;28;20473;-62
2022/12/22 16:15:30;;;;;;;12.50;2.20;;;8.00;99.90;;;;;;5019616;28;20387;-62
2022/12/22 16:17:58;;;;;;;11.65;2.10;;;7.90;99.90;;;;;;5014272;28;20113;-62
2022/12/22 16:20:24;;;;;;;8.50;2.33;;;7.90;99.90;;;;;;5018760;28;20450;-62
2022/12/22 16:22:51;;;;;;;6.63;1.88;;;7.90;99.90;;;;;;5011372;28;20049;-62
2022/12/22 16:25:26;;;;;;;8.77;2.10;;;7.90;99.90;;;;;;5029524;28;20136;-62
2022/12/22 16:27:53;;;;;;;11.55;2.78;;;7.90;99.90;;;;;;5013515;28;20044;-61
2022/12/22 16:30:22;;;;;;;12.43;3.00;;;7.90;99.90;;;;;;4993482;28;20081;-62
2022/12/22 16:32:47;;;;;;;11.70;2.97;;;7.90;99.90;;;;;;5013234;28;20046;-62
2022/12/22 16:35:19;;;;;;;13.48;3.08;;;7.90;99.90;;;;;;5009917;28;20427;-62
2022/12/22 16:37:45;;;;;;;7.85;2.58;;;7.80;99.90;;;;;;4996714;28;20419;-62
2022/12/22 16:40:12;;;;;;;11.73;3.35;;;7.90;99.90;;;;;;4995284;28;20308;-62
2022/12/22 16:42:39;;;;;;;13.23;3.13;;;7.80;99.90;;;;;;4976074;28;20577;-62
2022/12/22 16:45:20;;;;;;;16.00;3.75;;;7.80;99.90;;;;;;4994385;28;20412;-62